sensor_id;sensor_type;location;lat;lon;timestamp;P1;durP1;ratioP1;P2;durP2;ratioP2
38465;SDS011;24244;51.950;5.902;2022-08-21T00:02:13;8.30;;;3.80;;
38465;SDS011;24244;51.950;5.902;2022-08-21T00:04:39;8.93;;;4.07;;
38465;SDS011;24244;51.950;5.902;2022-08-21T00:07:05;8.32;;;4.10;;
38465;SDS011;24244;51.950;5.902;2022-08-21T00:09:31;8.82;;;3.90;;
38465;SDS011;24244;51.950;5.902;2022-08-21T00:11:56;9.13;;;4.03;;
38465;SDS011;24244;51.950;5.902;2022-08-21T00:14:23;8.13;;;3.30;;
38465;SDS011;24244;51.950;5.902;2022-08-21T00:16:49;9.15;;;4.25;;
38465;SDS011;24244;51.950;5.902;2022-08-21T00:19:15;8.68;;;4.10;;
38465;SDS011;24244;51.950;5.902;2022-08-21T00:21:40;9.20;;;3.97;;
38465;SDS011;24244;51.950;5.902;2022-08-21T00:24:06;8.75;;;3.78;;
38465;SDS011;24244;51.950;5.902;2022-08-21T00:26:32;8.65;;;4.18;;
38465;SDS011;24244;51.950;5.902;2022-08-21T00:28:57;11.18;;;4.15;;
38465;SDS011;24244;51.950;5.902;2022-08-21T00:31:24;9.32;;;4.22;;
38465;SDS011;24244;51.950;5.902;2022-08-21T00:33:50;10.38;;;4.30;;
38465;SDS011;24244;51.950;5.902;2022-08-21T00:36:16;7.90;;;4.03;;
38465;SDS011;24244;51.950;5.902;2022-08-21T00:38:42;9.93;;;4.80;;
38465;SDS011;24244;51.950;5.902;2022-08-21T00:41:08;9.13;;;4.03;;
38465;SDS011;24244;51.950;5.902;2022-08-21T00:43:35;8.20;;;3.83;;
38465;SDS011;24244;51.950;5.902;2022-08-21T00:46:03;8.85;;;3.90;;
38465;SDS011;24244;51.950;5.902;2022-08-21T00:48:31;8.15;;;4.05;;
38465;SDS011;24244;51.950;5.902;2022-08-21T00:50:58;11.13;;;4.43;;
38465;SDS011;24244;51.950;5.902;2022-08-21T00:55:52;8.52;;;3.83;;
38465;SDS011;24244;51.950;5.902;2022-08-21T00:58:19;8.68;;;3.72;;
38465;SDS011;24244;51.950;5.902;2022-08-21T01:00:46;8.77;;;4.00;;
38465;SDS011;24244;51.950;5.902;2022-08-21T01:03:15;8.88;;;4.38;;
38465;SDS011;24244;51.950;5.902;2022-08-21T01:05:44;8.10;;;3.92;;
38465;SDS011;24244;51.950;5.902;2022-08-21T01:08:11;9.43;;;4.18;;
38465;SDS011;24244;51.950;5.902;2022-08-21T01:10:39;8.32;;;3.97;;
38465;SDS011;24244;51.950;5.902;2022-08-21T01:13:05;8.35;;;3.80;;
38465;SDS011;24244;51.950;5.902;2022-08-21T01:15:34;7.82;;;4.13;;
38465;SDS011;24244;51.950;5.902;2022-08-21T01:18:01;8.88;;;4.03;;
38465;SDS011;24244;51.950;5.902;2022-08-21T01:20:28;8.65;;;4.25;;
38465;SDS011;24244;51.950;5.902;2022-08-21T01:22:55;8.73;;;4.32;;
38465;SDS011;24244;51.950;5.902;2022-08-21T01:25:21;7.80;;;3.85;;
38465;SDS011;24244;51.950;5.902;2022-08-21T01:27:47;8.93;;;4.20;;
38465;SDS011;24244;51.950;5.902;2022-08-21T01:30:14;8.10;;;3.67;;
38465;SDS011;24244;51.950;5.902;2022-08-21T01:32:43;8.85;;;4.05;;
38465;SDS011;24244;51.950;5.902;2022-08-21T01:35:09;8.07;;;4.10;;
38465;SDS011;24244;51.950;5.902;2022-08-21T01:37:39;8.55;;;4.00;;
38465;SDS011;24244;51.950;5.902;2022-08-21T01:40:08;8.35;;;4.50;;
38465;SDS011;24244;51.950;5.902;2022-08-21T01:42:35;10.43;;;4.70;;
38465;SDS011;24244;51.950;5.902;2022-08-21T01:45:01;9.18;;;4.45;;
38465;SDS011;24244;51.950;5.902;2022-08-21T01:47:27;9.60;;;4.88;;
38465;SDS011;24244;51.950;5.902;2022-08-21T01:49:52;9.77;;;4.22;;
38465;SDS011;24244;51.950;5.902;2022-08-21T01:52:18;10.43;;;4.28;;
38465;SDS011;24244;51.950;5.902;2022-08-21T01:54:44;9.00;;;4.53;;
38465;SDS011;24244;51.950;5.902;2022-08-21T01:57:11;10.38;;;4.60;;
38465;SDS011;24244;51.950;5.902;2022-08-21T01:59:37;10.57;;;4.35;;
38465;SDS011;24244;51.950;5.902;2022-08-21T02:02:04;9.27;;;4.80;;
38465;SDS011;24244;51.950;5.902;2022-08-21T02:04:30;9.18;;;4.60;;
38465;SDS011;24244;51.950;5.902;2022-08-21T02:06:56;8.18;;;4.18;;
38465;SDS011;24244;51.950;5.902;2022-08-21T02:09:22;8.73;;;4.55;;
38465;SDS011;24244;51.950;5.902;2022-08-21T02:11:47;9.00;;;4.50;;
38465;SDS011;24244;51.950;5.902;2022-08-21T02:14:14;9.13;;;4.80;;
38465;SDS011;24244;51.950;5.902;2022-08-21T02:16:41;10.30;;;4.63;;
38465;SDS011;24244;51.950;5.902;2022-08-21T02:19:08;10.20;;;5.15;;
38465;SDS011;24244;51.950;5.902;2022-08-21T02:21:35;9.52;;;5.03;;
38465;SDS011;24244;51.950;5.902;2022-08-21T02:24:00;9.02;;;4.93;;
38465;SDS011;24244;51.950;5.902;2022-08-21T02:26:26;9.95;;;4.53;;
38465;SDS011;24244;51.950;5.902;2022-08-21T02:28:52;9.32;;;5.03;;
38465;SDS011;24244;51.950;5.902;2022-08-21T02:31:19;8.57;;;4.40;;
38465;SDS011;24244;51.950;5.902;2022-08-21T02:33:45;8.63;;;4.65;;
38465;SDS011;24244;51.950;5.902;2022-08-21T02:36:11;9.48;;;4.93;;
38465;SDS011;24244;51.950;5.902;2022-08-21T02:38:37;10.20;;;4.82;;
38465;SDS011;24244;51.950;5.902;2022-08-21T02:41:05;9.90;;;4.63;;
38465;SDS011;24244;51.950;5.902;2022-08-21T02:43:32;10.32;;;4.90;;
38465;SDS011;24244;51.950;5.902;2022-08-21T02:45:58;8.90;;;4.57;;
38465;SDS011;24244;51.950;5.902;2022-08-21T02:48:26;10.02;;;4.75;;
38465;SDS011;24244;51.950;5.902;2022-08-21T02:50:55;10.05;;;4.95;;
38465;SDS011;24244;51.950;5.902;2022-08-21T02:53:22;11.40;;;4.95;;
38465;SDS011;24244;51.950;5.902;2022-08-21T02:55:49;9.23;;;4.90;;
38465;SDS011;24244;51.950;5.902;2022-08-21T02:58:17;8.73;;;4.70;;
38465;SDS011;24244;51.950;5.902;2022-08-21T03:00:44;11.25;;;4.78;;
38465;SDS011;24244;51.950;5.902;2022-08-21T03:03:10;9.55;;;4.65;;
38465;SDS011;24244;51.950;5.902;2022-08-21T03:05:40;10.53;;;5.47;;
38465;SDS011;24244;51.950;5.902;2022-08-21T03:08:07;9.43;;;4.30;;
38465;SDS011;24244;51.950;5.902;2022-08-21T03:10:35;8.65;;;4.80;;
38465;SDS011;24244;51.950;5.902;2022-08-21T03:13:01;9.35;;;4.80;;
38465;SDS011;24244;51.950;5.902;2022-08-21T03:15:28;8.55;;;4.85;;
38465;SDS011;24244;51.950;5.902;2022-08-21T03:17:54;8.75;;;4.13;;
38465;SDS011;24244;51.950;5.902;2022-08-21T03:20:22;8.10;;;4.15;;
38465;SDS011;24244;51.950;5.902;2022-08-21T03:22:50;9.15;;;4.25;;
38465;SDS011;24244;51.950;5.902;2022-08-21T03:25:16;8.13;;;4.63;;
38465;SDS011;24244;51.950;5.902;2022-08-21T03:27:43;8.95;;;4.22;;
38465;SDS011;24244;51.950;5.902;2022-08-21T03:30:09;8.35;;;4.07;;
38465;SDS011;24244;51.950;5.902;2022-08-21T03:32:36;8.77;;;4.07;;
38465;SDS011;24244;51.950;5.902;2022-08-21T03:35:02;8.13;;;4.18;;
38465;SDS011;24244;51.950;5.902;2022-08-21T03:37:28;8.60;;;4.53;;
38465;SDS011;24244;51.950;5.902;2022-08-21T03:39:55;8.20;;;4.13;;
38465;SDS011;24244;51.950;5.902;2022-08-21T03:42:21;8.27;;;4.32;;
38465;SDS011;24244;51.950;5.902;2022-08-21T03:44:46;9.50;;;3.88;;
38465;SDS011;24244;51.950;5.902;2022-08-21T03:47:12;9.23;;;4.22;;
38465;SDS011;24244;51.950;5.902;2022-08-21T03:49:37;11.25;;;4.38;;
38465;SDS011;24244;51.950;5.902;2022-08-21T03:52:03;8.23;;;4.18;;
38465;SDS011;24244;51.950;5.902;2022-08-21T03:54:30;9.00;;;4.60;;
38465;SDS011;24244;51.950;5.902;2022-08-21T03:56:57;10.75;;;4.53;;
38465;SDS011;24244;51.950;5.902;2022-08-21T03:59:22;9.10;;;4.88;;
38465;SDS011;24244;51.950;5.902;2022-08-21T04:01:52;10.93;;;5.00;;
38465;SDS011;24244;51.950;5.902;2022-08-21T04:04:18;9.15;;;4.63;;
38465;SDS011;24244;51.950;5.902;2022-08-21T04:06:44;9.18;;;4.55;;
38465;SDS011;24244;51.950;5.902;2022-08-21T04:09:09;9.60;;;4.57;;
38465;SDS011;24244;51.950;5.902;2022-08-21T04:11:35;9.07;;;4.45;;
38465;SDS011;24244;51.950;5.902;2022-08-21T04:14:03;8.45;;;4.10;;
38465;SDS011;24244;51.950;5.902;2022-08-21T04:16:29;9.10;;;4.43;;
38465;SDS011;24244;51.950;5.902;2022-08-21T04:18:55;8.40;;;4.50;;
38465;SDS011;24244;51.950;5.902;2022-08-21T04:21:21;8.60;;;4.72;;
38465;SDS011;24244;51.950;5.902;2022-08-21T04:23:47;9.45;;;4.90;;
38465;SDS011;24244;51.950;5.902;2022-08-21T04:26:13;9.68;;;4.85;;
38465;SDS011;24244;51.950;5.902;2022-08-21T04:28:38;10.40;;;5.20;;
38465;SDS011;24244;51.950;5.902;2022-08-21T04:31:05;9.43;;;4.72;;
38465;SDS011;24244;51.950;5.902;2022-08-21T04:33:31;9.27;;;5.18;;
38465;SDS011;24244;51.950;5.902;2022-08-21T04:35:57;8.48;;;4.88;;
38465;SDS011;24244;51.950;5.902;2022-08-21T04:38:22;9.57;;;5.03;;
38465;SDS011;24244;51.950;5.902;2022-08-21T04:40:48;9.90;;;4.65;;
38465;SDS011;24244;51.950;5.902;2022-08-21T04:43:14;9.63;;;5.20;;
38465;SDS011;24244;51.950;5.902;2022-08-21T04:45:41;11.02;;;5.20;;
38465;SDS011;24244;51.950;5.902;2022-08-21T04:48:09;8.85;;;5.20;;
38465;SDS011;24244;51.950;5.902;2022-08-21T04:50:37;11.25;;;5.68;;
38465;SDS011;24244;51.950;5.902;2022-08-21T04:53:08;10.02;;;5.55;;
38465;SDS011;24244;51.950;5.902;2022-08-21T04:55:36;11.77;;;5.95;;
38465;SDS011;24244;51.950;5.902;2022-08-21T04:58:03;10.20;;;5.30;;
38465;SDS011;24244;51.950;5.902;2022-08-21T05:00:30;8.80;;;4.75;;
38465;SDS011;24244;51.950;5.902;2022-08-21T05:02:55;9.60;;;5.60;;
38465;SDS011;24244;51.950;5.902;2022-08-21T05:05:25;12.43;;;6.28;;
38465;SDS011;24244;51.950;5.902;2022-08-21T05:07:53;10.18;;;5.90;;
38465;SDS011;24244;51.950;5.902;2022-08-21T05:10:18;10.60;;;5.82;;
38465;SDS011;24244;51.950;5.902;2022-08-21T05:12:44;9.73;;;5.57;;
38465;SDS011;24244;51.950;5.902;2022-08-21T05:15:11;10.50;;;5.65;;
38465;SDS011;24244;51.950;5.902;2022-08-21T05:17:37;9.25;;;5.60;;
38465;SDS011;24244;51.950;5.902;2022-08-21T05:20:03;9.45;;;5.57;;
38465;SDS011;24244;51.950;5.902;2022-08-21T05:22:31;11.65;;;6.22;;
38465;SDS011;24244;51.950;5.902;2022-08-21T05:24:56;9.10;;;5.70;;
38465;SDS011;24244;51.950;5.902;2022-08-21T05:27:22;10.10;;;6.15;;
38465;SDS011;24244;51.950;5.902;2022-08-21T05:29:47;10.25;;;5.70;;
38465;SDS011;24244;51.950;5.902;2022-08-21T05:32:13;9.55;;;5.47;;
38465;SDS011;24244;51.950;5.902;2022-08-21T05:34:39;10.07;;;5.65;;
38465;SDS011;24244;51.950;5.902;2022-08-21T05:37:05;11.10;;;5.80;;
38465;SDS011;24244;51.950;5.902;2022-08-21T05:39:32;10.73;;;5.80;;
38465;SDS011;24244;51.950;5.902;2022-08-21T05:41:58;10.77;;;6.00;;
38465;SDS011;24244;51.950;5.902;2022-08-21T05:44:23;10.32;;;6.40;;
38465;SDS011;24244;51.950;5.902;2022-08-21T05:46:49;10.52;;;6.13;;
38465;SDS011;24244;51.950;5.902;2022-08-21T05:49:15;12.38;;;7.75;;
38465;SDS011;24244;51.950;5.902;2022-08-21T05:51:40;10.90;;;6.55;;
38465;SDS011;24244;51.950;5.902;2022-08-21T05:54:06;13.57;;;7.15;;
38465;SDS011;24244;51.950;5.902;2022-08-21T05:56:33;13.23;;;8.00;;
38465;SDS011;24244;51.950;5.902;2022-08-21T05:58:59;12.98;;;8.00;;
38465;SDS011;24244;51.950;5.902;2022-08-21T06:01:26;12.82;;;8.32;;
38465;SDS011;24244;51.950;5.902;2022-08-21T06:03:51;14.98;;;8.77;;
38465;SDS011;24244;51.950;5.902;2022-08-21T06:06:17;15.00;;;8.52;;
38465;SDS011;24244;51.950;5.902;2022-08-21T06:08:42;13.35;;;8.93;;
38465;SDS011;24244;51.950;5.902;2022-08-21T06:11:09;13.32;;;8.38;;
38465;SDS011;24244;51.950;5.902;2022-08-21T06:13:36;16.35;;;9.60;;
38465;SDS011;24244;51.950;5.902;2022-08-21T06:16:03;15.77;;;9.60;;
38465;SDS011;24244;51.950;5.902;2022-08-21T06:20:56;12.20;;;8.52;;
38465;SDS011;24244;51.950;5.902;2022-08-21T06:23:22;12.88;;;8.05;;
38465;SDS011;24244;51.950;5.902;2022-08-21T06:25:47;15.38;;;8.75;;
38465;SDS011;24244;51.950;5.902;2022-08-21T06:28:14;13.15;;;8.57;;
38465;SDS011;24244;51.950;5.902;2022-08-21T06:30:42;13.68;;;8.40;;
38465;SDS011;24244;51.950;5.902;2022-08-21T06:33:08;13.73;;;8.45;;
38465;SDS011;24244;51.950;5.902;2022-08-21T06:35:34;12.85;;;8.05;;
38465;SDS011;24244;51.950;5.902;2022-08-21T06:38:00;15.40;;;8.10;;
38465;SDS011;24244;51.950;5.902;2022-08-21T06:40:26;14.73;;;8.23;;
38465;SDS011;24244;51.950;5.902;2022-08-21T06:42:53;12.75;;;7.30;;
38465;SDS011;24244;51.950;5.902;2022-08-21T06:45:19;11.00;;;7.53;;
38465;SDS011;24244;51.950;5.902;2022-08-21T06:47:46;15.25;;;7.38;;
38465;SDS011;24244;51.950;5.902;2022-08-21T06:50:11;12.95;;;7.18;;
38465;SDS011;24244;51.950;5.902;2022-08-21T06:52:38;12.13;;;7.07;;
38465;SDS011;24244;51.950;5.902;2022-08-21T06:55:08;13.50;;;7.15;;
38465;SDS011;24244;51.950;5.902;2022-08-21T06:57:35;13.48;;;7.85;;
38465;SDS011;24244;51.950;5.902;2022-08-21T07:00:01;14.18;;;7.53;;
38465;SDS011;24244;51.950;5.902;2022-08-21T07:02:28;13.90;;;6.88;;
38465;SDS011;24244;51.950;5.902;2022-08-21T07:04:55;14.95;;;7.80;;
38465;SDS011;24244;51.950;5.902;2022-08-21T07:07:22;14.00;;;6.95;;
38465;SDS011;24244;51.950;5.902;2022-08-21T07:09:47;13.43;;;6.85;;
38465;SDS011;24244;51.950;5.902;2022-08-21T07:12:13;12.93;;;6.85;;
38465;SDS011;24244;51.950;5.902;2022-08-21T07:14:39;11.57;;;6.53;;
38465;SDS011;24244;51.950;5.902;2022-08-21T07:17:05;15.30;;;6.78;;
38465;SDS011;24244;51.950;5.902;2022-08-21T07:19:30;11.65;;;5.93;;
38465;SDS011;24244;51.950;5.902;2022-08-21T07:21:58;14.10;;;7.43;;
38465;SDS011;24244;51.950;5.902;2022-08-21T07:24:26;13.88;;;7.00;;
38465;SDS011;24244;51.950;5.902;2022-08-21T07:26:53;12.30;;;6.93;;
38465;SDS011;24244;51.950;5.902;2022-08-21T07:29:19;12.07;;;6.10;;
38465;SDS011;24244;51.950;5.902;2022-08-21T07:31:46;13.65;;;6.47;;
38465;SDS011;24244;51.950;5.902;2022-08-21T07:34:12;11.55;;;6.40;;
38465;SDS011;24244;51.950;5.902;2022-08-21T07:36:37;12.90;;;6.82;;
38465;SDS011;24244;51.950;5.902;2022-08-21T07:39:06;13.23;;;6.60;;
38465;SDS011;24244;51.950;5.902;2022-08-21T07:41:33;15.65;;;7.70;;
38465;SDS011;24244;51.950;5.902;2022-08-21T07:43:59;13.55;;;6.82;;
38465;SDS011;24244;51.950;5.902;2022-08-21T07:46:25;11.90;;;6.30;;
38465;SDS011;24244;51.950;5.902;2022-08-21T07:48:51;13.63;;;6.18;;
38465;SDS011;24244;51.950;5.902;2022-08-21T07:51:18;12.60;;;6.72;;
38465;SDS011;24244;51.950;5.902;2022-08-21T07:53:47;13.35;;;7.10;;
38465;SDS011;24244;51.950;5.902;2022-08-21T07:56:14;13.35;;;6.50;;
38465;SDS011;24244;51.950;5.902;2022-08-21T07:58:40;12.40;;;6.75;;
38465;SDS011;24244;51.950;5.902;2022-08-21T08:01:05;15.35;;;7.38;;
38465;SDS011;24244;51.950;5.902;2022-08-21T08:03:31;15.30;;;8.18;;
38465;SDS011;24244;51.950;5.902;2022-08-21T08:05:57;13.30;;;6.13;;
38465;SDS011;24244;51.950;5.902;2022-08-21T08:08:23;12.23;;;6.03;;
38465;SDS011;24244;51.950;5.902;2022-08-21T08:10:49;11.25;;;6.38;;
38465;SDS011;24244;51.950;5.902;2022-08-21T08:13:16;12.50;;;6.43;;
38465;SDS011;24244;51.950;5.902;2022-08-21T08:15:42;12.10;;;6.45;;
38465;SDS011;24244;51.950;5.902;2022-08-21T08:18:07;10.70;;;6.15;;
38465;SDS011;24244;51.950;5.902;2022-08-21T08:20:33;11.90;;;5.57;;
38465;SDS011;24244;51.950;5.902;2022-08-21T08:22:59;11.68;;;5.63;;
38465;SDS011;24244;51.950;5.902;2022-08-21T08:25:24;13.68;;;5.68;;
38465;SDS011;24244;51.950;5.902;2022-08-21T08:27:51;11.98;;;5.40;;
38465;SDS011;24244;51.950;5.902;2022-08-21T08:30:18;12.10;;;5.78;;
38465;SDS011;24244;51.950;5.902;2022-08-21T08:32:45;12.25;;;5.50;;
38465;SDS011;24244;51.950;5.902;2022-08-21T08:35:11;9.30;;;5.05;;
38465;SDS011;24244;51.950;5.902;2022-08-21T08:37:38;11.30;;;5.47;;
38465;SDS011;24244;51.950;5.902;2022-08-21T08:40:06;11.68;;;5.78;;
38465;SDS011;24244;51.950;5.902;2022-08-21T08:42:35;12.45;;;5.53;;
38465;SDS011;24244;51.950;5.902;2022-08-21T08:45:03;12.30;;;5.22;;
38465;SDS011;24244;51.950;5.902;2022-08-21T08:47:33;11.13;;;4.90;;
38465;SDS011;24244;51.950;5.902;2022-08-21T08:50:03;11.73;;;5.05;;
38465;SDS011;24244;51.950;5.902;2022-08-21T08:52:31;13.00;;;5.10;;
38465;SDS011;24244;51.950;5.902;2022-08-21T08:55:02;11.77;;;5.30;;
38465;SDS011;24244;51.950;5.902;2022-08-21T08:57:31;10.95;;;4.60;;
38465;SDS011;24244;51.950;5.902;2022-08-21T09:00:00;11.63;;;4.90;;
38465;SDS011;24244;51.950;5.902;2022-08-21T09:02:30;10.07;;;4.40;;
38465;SDS011;24244;51.950;5.902;2022-08-21T09:04:57;9.40;;;4.20;;
38465;SDS011;24244;51.950;5.902;2022-08-21T09:07:27;9.82;;;3.85;;
38465;SDS011;24244;51.950;5.902;2022-08-21T09:10:05;11.00;;;4.35;;
38465;SDS011;24244;51.950;5.902;2022-08-21T09:12:40;10.48;;;3.78;;
38465;SDS011;24244;51.950;5.902;2022-08-21T09:15:21;8.82;;;3.85;;
38465;SDS011;24244;51.950;5.902;2022-08-21T09:18:00;10.85;;;3.92;;
38465;SDS011;24244;51.950;5.902;2022-08-21T09:20:39;9.35;;;3.42;;
38465;SDS011;24244;51.950;5.902;2022-08-21T09:23:22;8.77;;;3.35;;
38465;SDS011;24244;51.950;5.902;2022-08-21T09:25:56;11.27;;;3.72;;
38465;SDS011;24244;51.950;5.902;2022-08-21T09:28:26;11.77;;;3.42;;
38465;SDS011;24244;51.950;5.902;2022-08-21T09:30:56;10.13;;;3.13;;
38465;SDS011;24244;51.950;5.902;2022-08-21T09:33:27;11.00;;;2.83;;
38465;SDS011;24244;51.950;5.902;2022-08-21T09:35:55;8.13;;;2.70;;
38465;SDS011;24244;51.950;5.902;2022-08-21T09:38:26;7.35;;;3.00;;
38465;SDS011;24244;51.950;5.902;2022-08-21T09:40:57;8.80;;;2.97;;
38465;SDS011;24244;51.950;5.902;2022-08-21T09:43:25;9.18;;;2.88;;
38465;SDS011;24244;51.950;5.902;2022-08-21T09:46:01;9.65;;;3.08;;
38465;SDS011;24244;51.950;5.902;2022-08-21T09:48:39;8.88;;;2.88;;
38465;SDS011;24244;51.950;5.902;2022-08-21T09:51:12;10.80;;;2.22;;
38465;SDS011;24244;51.950;5.902;2022-08-21T09:53:39;9.43;;;2.30;;
38465;SDS011;24244;51.950;5.902;2022-08-21T09:56:16;6.97;;;2.55;;
38465;SDS011;24244;51.950;5.902;2022-08-21T09:59:12;10.25;;;3.03;;
38465;SDS011;24244;51.950;5.902;2022-08-21T10:01:43;7.72;;;2.30;;
38465;SDS011;24244;51.950;5.902;2022-08-21T10:04:10;7.72;;;2.50;;
38465;SDS011;24244;51.950;5.902;2022-08-21T10:06:37;12.10;;;2.72;;
38465;SDS011;24244;51.950;5.902;2022-08-21T10:09:04;8.20;;;2.00;;
38465;SDS011;24244;51.950;5.902;2022-08-21T10:11:31;7.38;;;1.92;;
38465;SDS011;24244;51.950;5.902;2022-08-21T10:13:59;7.95;;;2.00;;
38465;SDS011;24244;51.950;5.902;2022-08-21T10:16:35;8.48;;;2.30;;
38465;SDS011;24244;51.950;5.902;2022-08-21T10:19:13;7.13;;;2.15;;
38465;SDS011;24244;51.950;5.902;2022-08-21T10:21:52;6.97;;;2.40;;
38465;SDS011;24244;51.950;5.902;2022-08-21T10:24:26;6.75;;;2.25;;
38465;SDS011;24244;51.950;5.902;2022-08-21T10:26:58;8.15;;;2.40;;
38465;SDS011;24244;51.950;5.902;2022-08-21T10:29:37;8.68;;;2.33;;
38465;SDS011;24244;51.950;5.902;2022-08-21T10:34:41;7.32;;;2.20;;
38465;SDS011;24244;51.950;5.902;2022-08-21T10:37:18;6.80;;;1.70;;
38465;SDS011;24244;51.950;5.902;2022-08-21T10:39:59;5.90;;;1.70;;
38465;SDS011;24244;51.950;5.902;2022-08-21T10:42:38;6.75;;;2.05;;
38465;SDS011;24244;51.950;5.902;2022-08-21T10:45:20;7.30;;;1.90;;
38465;SDS011;24244;51.950;5.902;2022-08-21T10:50:28;7.15;;;1.60;;
38465;SDS011;24244;51.950;5.902;2022-08-21T10:53:11;6.40;;;1.58;;
38465;SDS011;24244;51.950;5.902;2022-08-21T10:55:50;6.43;;;1.80;;
38465;SDS011;24244;51.950;5.902;2022-08-21T10:58:25;4.28;;;1.50;;
38465;SDS011;24244;51.950;5.902;2022-08-21T11:00:55;6.32;;;1.60;;
38465;SDS011;24244;51.950;5.902;2022-08-21T11:03:25;6.32;;;1.83;;
38465;SDS011;24244;51.950;5.902;2022-08-21T11:05:57;7.10;;;1.70;;
38465;SDS011;24244;51.950;5.902;2022-08-21T11:08:29;7.53;;;1.98;;
38465;SDS011;24244;51.950;5.902;2022-08-21T11:11:04;10.15;;;2.47;;
38465;SDS011;24244;51.950;5.902;2022-08-21T11:13:36;6.50;;;1.80;;
38465;SDS011;24244;51.950;5.902;2022-08-21T11:16:07;5.75;;;1.80;;
38465;SDS011;24244;51.950;5.902;2022-08-21T11:18:39;6.35;;;1.95;;
38465;SDS011;24244;51.950;5.902;2022-08-21T11:21:14;6.53;;;1.60;;
38465;SDS011;24244;51.950;5.902;2022-08-21T11:23:53;7.13;;;1.63;;
38465;SDS011;24244;51.950;5.902;2022-08-21T11:26:25;6.47;;;1.83;;
38465;SDS011;24244;51.950;5.902;2022-08-21T11:29:04;6.63;;;1.30;;
38465;SDS011;24244;51.950;5.902;2022-08-21T11:32:05;6.93;;;1.60;;
38465;SDS011;24244;51.950;5.902;2022-08-21T11:34:48;6.20;;;1.60;;
38465;SDS011;24244;51.950;5.902;2022-08-21T11:37:23;5.47;;;1.33;;
38465;SDS011;24244;51.950;5.902;2022-08-21T11:40:10;5.95;;;1.67;;
38465;SDS011;24244;51.950;5.902;2022-08-21T11:42:45;6.40;;;1.33;;
38465;SDS011;24244;51.950;5.902;2022-08-21T11:45:22;5.45;;;1.52;;
38465;SDS011;24244;51.950;5.902;2022-08-21T11:47:58;5.90;;;1.58;;
38465;SDS011;24244;51.950;5.902;2022-08-21T11:50:30;6.63;;;1.67;;
38465;SDS011;24244;51.950;5.902;2022-08-21T11:52:58;5.65;;;1.77;;
38465;SDS011;24244;51.950;5.902;2022-08-21T11:55:31;5.72;;;1.60;;
38465;SDS011;24244;51.950;5.902;2022-08-21T11:58:04;7.45;;;1.75;;
38465;SDS011;24244;51.950;5.902;2022-08-21T12:00:33;5.68;;;1.40;;
38465;SDS011;24244;51.950;5.902;2022-08-21T12:05:33;7.68;;;1.58;;
38465;SDS011;24244;51.950;5.902;2022-08-21T12:08:06;4.32;;;1.17;;
38465;SDS011;24244;51.950;5.902;2022-08-21T12:10:38;4.60;;;1.33;;
38465;SDS011;24244;51.950;5.902;2022-08-21T12:13:09;4.55;;;1.13;;
38465;SDS011;24244;51.950;5.902;2022-08-21T12:15:39;5.57;;;1.45;;
38465;SDS011;24244;51.950;5.902;2022-08-21T12:18:05;6.47;;;1.48;;
38465;SDS011;24244;51.950;5.902;2022-08-21T12:20:44;5.35;;;1.50;;
38465;SDS011;24244;51.950;5.902;2022-08-21T12:26:00;5.70;;;1.30;;
38465;SDS011;24244;51.950;5.902;2022-08-21T12:28:35;6.68;;;1.30;;
38465;SDS011;24244;51.950;5.902;2022-08-21T12:31:02;7.63;;;1.50;;
38465;SDS011;24244;51.950;5.902;2022-08-21T12:33:28;5.38;;;1.30;;
38465;SDS011;24244;51.950;5.902;2022-08-21T12:36:02;4.32;;;1.15;;
38465;SDS011;24244;51.950;5.902;2022-08-21T12:38:32;5.60;;;1.30;;
38465;SDS011;24244;51.950;5.902;2022-08-21T12:41:06;5.15;;;1.42;;
38465;SDS011;24244;51.950;5.902;2022-08-21T12:43:38;6.72;;;1.52;;
38465;SDS011;24244;51.950;5.902;2022-08-21T12:46:13;5.57;;;1.23;;
38465;SDS011;24244;51.950;5.902;2022-08-21T12:48:41;5.05;;;1.20;;
38465;SDS011;24244;51.950;5.902;2022-08-21T12:51:13;8.25;;;2.30;;
38465;SDS011;24244;51.950;5.902;2022-08-21T12:53:42;6.78;;;1.65;;
38465;SDS011;24244;51.950;5.902;2022-08-21T12:56:16;5.40;;;1.60;;
38465;SDS011;24244;51.950;5.902;2022-08-21T12:58:45;5.82;;;1.45;;
38465;SDS011;24244;51.950;5.902;2022-08-21T13:01:14;6.47;;;1.45;;
38465;SDS011;24244;51.950;5.902;2022-08-21T13:03:45;7.03;;;1.55;;
38465;SDS011;24244;51.950;5.902;2022-08-21T13:06:12;5.25;;;1.15;;
38465;SDS011;24244;51.950;5.902;2022-08-21T13:08:42;6.00;;;1.20;;
38465;SDS011;24244;51.950;5.902;2022-08-21T13:11:08;6.75;;;1.52;;
38465;SDS011;24244;51.950;5.902;2022-08-21T13:13:37;5.00;;;1.10;;
38465;SDS011;24244;51.950;5.902;2022-08-21T13:16:04;6.27;;;1.90;;
38465;SDS011;24244;51.950;5.902;2022-08-21T13:18:32;7.00;;;1.58;;
38465;SDS011;24244;51.950;5.902;2022-08-21T13:23:29;5.28;;;1.27;;
38465;SDS011;24244;51.950;5.902;2022-08-21T13:25:56;5.10;;;1.10;;
38465;SDS011;24244;51.950;5.902;2022-08-21T13:28:22;3.90;;;1.10;;
38465;SDS011;24244;51.950;5.902;2022-08-21T13:30:51;5.18;;;1.05;;
38465;SDS011;24244;51.950;5.902;2022-08-21T13:33:18;5.85;;;1.20;;
38465;SDS011;24244;51.950;5.902;2022-08-21T13:38:14;4.03;;;1.00;;
38465;SDS011;24244;51.950;5.902;2022-08-21T13:40:44;4.53;;;1.10;;
38465;SDS011;24244;51.950;5.902;2022-08-21T13:43:12;4.45;;;1.20;;
38465;SDS011;24244;51.950;5.902;2022-08-21T13:45:42;5.00;;;1.10;;
38465;SDS011;24244;51.950;5.902;2022-08-21T13:48:10;5.20;;;1.30;;
38465;SDS011;24244;51.950;5.902;2022-08-21T13:50:36;5.25;;;1.20;;
38465;SDS011;24244;51.950;5.902;2022-08-21T13:53:05;5.28;;;1.35;;
38465;SDS011;24244;51.950;5.902;2022-08-21T13:55:43;6.15;;;1.38;;
38465;SDS011;24244;51.950;5.902;2022-08-21T13:58:10;4.30;;;1.10;;
38465;SDS011;24244;51.950;5.902;2022-08-21T14:00:43;5.32;;;1.33;;
38465;SDS011;24244;51.950;5.902;2022-08-21T14:03:15;6.78;;;1.48;;
38465;SDS011;24244;51.950;5.902;2022-08-21T14:05:52;5.45;;;1.48;;
38465;SDS011;24244;51.950;5.902;2022-08-21T14:08:20;5.15;;;1.30;;
38465;SDS011;24244;51.950;5.902;2022-08-21T14:10:52;5.53;;;1.27;;
38465;SDS011;24244;51.950;5.902;2022-08-21T14:16:08;5.22;;;1.13;;
38465;SDS011;24244;51.950;5.902;2022-08-21T14:18:44;6.13;;;1.27;;
38465;SDS011;24244;51.950;5.902;2022-08-21T14:23:58;4.40;;;1.10;;
38465;SDS011;24244;51.950;5.902;2022-08-21T14:26:25;6.28;;;1.30;;
38465;SDS011;24244;51.950;5.902;2022-08-21T14:28:50;5.50;;;1.17;;
38465;SDS011;24244;51.950;5.902;2022-08-21T14:31:17;5.38;;;1.25;;
38465;SDS011;24244;51.950;5.902;2022-08-21T14:33:45;5.90;;;1.40;;
38465;SDS011;24244;51.950;5.902;2022-08-21T14:36:11;5.35;;;1.20;;
38465;SDS011;24244;51.950;5.902;2022-08-21T14:38:38;3.35;;;1.10;;
38465;SDS011;24244;51.950;5.902;2022-08-21T14:41:08;4.85;;;1.23;;
38465;SDS011;24244;51.950;5.902;2022-08-21T14:43:43;5.38;;;1.10;;
38465;SDS011;24244;51.950;5.902;2022-08-21T14:46:10;5.88;;;1.30;;
38465;SDS011;24244;51.950;5.902;2022-08-21T14:48:37;8.50;;;1.45;;
38465;SDS011;24244;51.950;5.902;2022-08-21T14:51:04;6.40;;;1.35;;
38465;SDS011;24244;51.950;5.902;2022-08-21T14:53:30;5.25;;;1.20;;
38465;SDS011;24244;51.950;5.902;2022-08-21T14:55:55;4.18;;;1.25;;
38465;SDS011;24244;51.950;5.902;2022-08-21T14:58:30;6.32;;;1.23;;
38465;SDS011;24244;51.950;5.902;2022-08-21T15:00:56;3.95;;;1.20;;
38465;SDS011;24244;51.950;5.902;2022-08-21T15:03:23;5.72;;;1.30;;
38465;SDS011;24244;51.950;5.902;2022-08-21T15:05:49;5.35;;;1.30;;
38465;SDS011;24244;51.950;5.902;2022-08-21T15:08:16;4.03;;;1.15;;
38465;SDS011;24244;51.950;5.902;2022-08-21T15:10:43;5.90;;;1.17;;
38465;SDS011;24244;51.950;5.902;2022-08-21T15:13:09;4.95;;;1.20;;
38465;SDS011;24244;51.950;5.902;2022-08-21T15:15:35;5.03;;;1.33;;
38465;SDS011;24244;51.950;5.902;2022-08-21T15:18:04;7.15;;;1.45;;